Time;durP1;ratioP1;P1;durP2;ratioP2;P2;SDS_P1;SDS_P2;PMS_P1;PMS_P2;Temp;Humidity;BMP_temperature;BMP_pressure;BME280_temperature;BME280_humidity;BME280_pressure;Samples;Min_cycle;Max_cycle;Signal;HPM_P1;HPM_P2
2022/05/31 00:02:10;;;;;;;2.72;2.00;;;;;;;9.79;62.33;101299.13;6213741;23;20587;-83
2022/05/31 00:04:35;;;;;;;3.05;2.00;;;;;;;9.75;62.57;101298.25;6215862;23;20008;-83
2022/05/31 00:07:01;;;;;;;2.13;1.90;;;;;;;9.73;63.26;101297.44;6215789;23;20005;-83
2022/05/31 00:09:26;;;;;;;2.80;1.70;;;;;;;9.68;62.73;101294.84;6215621;23;20032;-83
2022/05/31 00:11:52;;;;;;;2.30;2.10;;;;;;;9.64;62.49;101292.25;6215487;23;20055;-83
2022/05/31 00:14:19;;;;;;;2.13;2.00;;;;;;;9.61;62.75;101293.16;6214927;23;20084;-83
2022/05/31 00:16:54;;;;;;;2.20;1.90;;;;;;;9.59;62.66;101289.69;6215572;23;20058;-83
2022/05/31 00:19:19;;;;;;;2.65;2.10;;;;;;;9.55;63.10;101290.59;6215906;23;20015;-84
2022/05/31 00:21:59;;;;;;;2.53;2.00;;;;;;;9.55;62.93;101293.19;6214426;23;20001;-84
2022/05/31 00:24:24;;;;;;;2.38;2.10;;;;;;;9.51;63.32;101288.88;6215885;23;20005;-84
2022/05/31 00:26:49;;;;;;;2.53;1.80;;;;;;;9.47;63.60;101290.63;6215692;23;20317;-84
2022/05/31 00:29:15;;;;;;;1.98;1.88;;;;;;;9.40;63.37;101284.59;6215131;23;20004;-83
2022/05/31 00:31:44;;;;;;;2.30;2.10;;;;;;;9.39;63.45;101298.41;6215660;23;20437;-83
2022/05/31 00:34:10;;;;;;;2.17;1.98;;;;;;;9.38;63.21;101294.09;6215397;23;20040;-83
2022/05/31 00:36:38;;;;;;;2.30;2.10;;;;;;;9.34;63.59;101283.75;6215108;23;20000;-83
2022/05/31 00:39:03;;;;;;;2.30;2.10;;;;;;;9.30;63.28;101289.78;6215873;23;20000;-83
2022/05/31 00:41:29;;;;;;;2.40;2.20;;;;;;;9.24;63.62;101286.38;6215114;23;20047;-84
2022/05/31 00:44:08;;;;;;;2.88;2.50;;;;;;;9.23;63.82;101288.97;6214391;23;20381;-83
2022/05/31 00:46:44;;;;;;;2.50;1.92;;;;;;;9.20;63.96;101286.38;6215961;23;20000;-83
2022/05/31 00:49:12;;;;;;;3.20;2.20;;;;;;;9.18;63.93;101291.53;6215854;23;20008;-83
2022/05/31 00:51:45;;;;;;;2.13;1.92;;;;;;;9.15;64.08;101293.28;6214092;23;20009;-84
2022/05/31 00:54:17;;;;;;;2.85;1.92;;;;;;;9.14;63.96;101292.44;6215793;23;20008;-84
2022/05/31 00:56:44;;;;;;;2.75;2.10;;;;;;;9.12;63.99;101289.84;6214602;23;20074;-83
2022/05/31 00:59:14;;;;;;;3.08;2.40;;;;;;;9.12;64.22;101294.16;6215748;23;20000;-83
2022/05/31 01:01:42;;;;;;;2.30;2.10;;;;;;;9.10;64.17;101290.72;6215065;23;20329;-83
2022/05/31 01:04:10;;;;;;;2.55;2.30;;;;;;;9.07;64.19;101288.13;6214800;23;20007;-83
2022/05/31 01:06:38;;;;;;;2.38;2.17;;;;;;;9.07;64.28;101286.41;6215469;23;20052;-84
2022/05/31 01:09:06;;;;;;;2.40;2.20;;;;;;;9.06;64.53;101283.84;6215273;23;20276;-83
2022/05/31 01:11:38;;;;;;;2.40;2.20;;;;;;;9.05;64.34;101285.53;6214680;23;20013;-83
2022/05/31 01:14:04;;;;;;;3.70;2.13;;;;;;;9.05;64.39;101282.09;6215665;23;20011;-84
2022/05/31 01:16:29;;;;;;;2.40;2.20;;;;;;;9.03;64.88;101284.69;6216106;23;20059;-83
2022/05/31 01:18:55;;;;;;;2.30;2.10;;;;;;;9.00;64.88;101281.25;6214933;23;20235;-83
2022/05/31 01:21:20;;;;;;;3.20;2.20;;;;;;;8.95;64.89;101273.47;6215888;23;20078;-83
2022/05/31 01:23:59;;;;;;;2.37;2.10;;;;;;;8.93;65.15;101276.09;6213703;23;20007;-83
2022/05/31 01:26:46;;;;;;;2.70;2.20;;;;;;;8.91;65.08;101279.50;6215094;23;20008;-84
2022/05/31 01:29:21;;;;;;;2.33;2.10;;;;;;;8.89;65.22;101276.09;6214374;23;20035;-83
2022/05/31 01:31:52;;;;;;;2.92;2.40;;;;;;;8.87;65.06;101272.63;6214263;23;20009;-83
2022/05/31 01:34:24;;;;;;;3.28;2.20;;;;;;;8.85;65.40;101270.03;6215773;23;20005;-83
2022/05/31 01:36:55;;;;;;;2.45;2.17;;;;;;;8.84;65.32;101272.63;6214383;23;20480;-83
2022/05/31 01:39:37;;;;;;;3.10;2.50;;;;;;;8.79;65.31;101267.47;6214368;23;20001;-84
2022/05/31 01:42:21;;;;;;;2.53;2.17;;;;;;;8.77;65.63;101269.19;6214882;23;20085;-83
2022/05/31 01:44:51;;;;;;;2.72;2.20;;;;;;;8.74;65.76;101266.59;6214335;23;20071;-83
2022/05/31 01:47:18;;;;;;;3.35;2.42;;;;;;;8.70;65.89;101268.31;6214157;23;20319;-83
2022/05/31 01:49:48;;;;;;;2.38;2.17;;;;;;;8.67;65.85;101270.91;6214992;23;20001;-83
2022/05/31 01:52:13;;;;;;;2.42;2.22;;;;;;;8.62;66.07;101263.16;6214797;23;20012;-83
2022/05/31 01:54:41;;;;;;;2.40;2.20;;;;;;;8.60;66.04;101277.84;6213910;23;20005;-83
2022/05/31 01:57:10;;;;;;;3.50;2.50;;;;;;;8.56;66.13;101267.47;6215298;23;20005;-83
2022/05/31 01:59:38;;;;;;;3.03;2.45;;;;;;;8.54;66.32;101266.63;6214720;23;20361;-83
2022/05/31 02:02:06;;;;;;;2.58;2.30;;;;;;;8.52;66.28;101276.09;6215292;23;20075;-83
2022/05/31 02:04:32;;;;;;;3.28;2.55;;;;;;;8.50;66.37;101271.78;6214888;23;20008;-83
2022/05/31 02:07:27;;;;;;;2.83;2.20;;;;;;;8.47;66.42;101270.91;6213655;23;20765;-84
2022/05/31 02:09:54;;;;;;;2.67;2.10;;;;;;;8.43;66.61;101269.16;6189452;23;20004;-83
2022/05/31 02:12:22;;;;;;;3.13;2.30;;;;;;;8.39;66.43;101262.28;6215033;23;20095;-83
2022/05/31 02:14:48;;;;;;;2.70;2.30;;;;;;;8.38;66.81;101265.72;6214172;23;20011;-83
2022/05/31 02:17:16;;;;;;;3.97;2.40;;;;;;;8.35;66.96;101264.84;6215341;23;20000;-83
2022/05/31 02:19:41;;;;;;;2.50;2.30;;;;;;;8.33;66.85;101270.91;6214935;23;20005;-83
2022/05/31 02:22:09;;;;;;;3.03;2.30;;;;;;;8.33;66.94;101266.56;6214108;23;20471;-83
2022/05/31 02:24:34;;;;;;;2.97;2.20;;;;;;;8.32;67.16;101264.00;6215299;23;20058;-83
2022/05/31 02:27:01;;;;;;;2.90;2.23;;;;;;;8.30;67.35;101265.72;6217498;23;20437;-83
2022/05/31 02:29:29;;;;;;;2.72;2.30;;;;;;;8.29;67.51;101264.84;6217983;23;20080;-83
2022/05/31 02:31:57;;;;;;;2.30;2.10;;;;;;;8.28;67.43;101262.25;6217088;23;20375;-83
2022/05/31 02:34:26;;;;;;;2.65;2.20;;;;;;;8.27;67.62;101261.41;6218016;23;20008;-83
2022/05/31 02:36:51;;;;;;;2.90;2.10;;;;;;;8.27;67.79;101260.53;6215883;23;20000;-84
2022/05/31 02:39:17;;;;;;;2.20;2.00;;;;;;;8.29;67.74;101251.91;6217016;23;20373;-83
2022/05/31 02:41:49;;;;;;;3.10;2.20;;;;;;;8.30;67.58;101258.81;6216246;23;20051;-83
2022/05/31 02:44:15;;;;;;;2.30;2.10;;;;;;;8.31;68.35;101251.94;6216888;23;20080;-83
2022/05/31 02:46:41;;;;;;;1.90;1.80;;;;;;;8.32;68.04;101243.31;6216910;23;20255;-83
2022/05/31 02:49:07;;;;;;;2.13;1.92;;;;;;;8.33;68.14;101250.22;6215934;23;20001;-83
2022/05/31 02:51:37;;;;;;;2.17;1.90;;;;;;;8.33;67.84;101250.22;6216912;23;20307;-83
2022/05/31 02:54:03;;;;;;;2.17;1.98;;;;;;;8.37;68.08;101254.50;6217085;23;20059;-83
2022/05/31 02:56:29;;;;;;;2.05;1.95;;;;;;;8.38;67.94;101253.66;6215672;23;20012;-83
2022/05/31 02:58:54;;;;;;;2.28;2.10;;;;;;;8.43;67.79;101256.22;6216001;23;20422;-83
2022/05/31 03:01:23;;;;;;;2.57;2.00;;;;;;;8.46;67.85;101251.91;6216711;23;20005;-83
2022/05/31 03:03:49;;;;;;;3.35;2.10;;;;;;;8.49;68.04;101245.94;6215636;23;20011;-84
2022/05/31 03:06:14;;;;;;;2.23;1.97;;;;;;;8.51;67.91;101246.78;6216248;23;20009;-83
2022/05/31 03:08:40;;;;;;;2.70;2.13;;;;;;;8.55;67.86;101245.06;6215775;23;20009;-83
2022/05/31 03:11:14;;;;;;;2.30;2.10;;;;;;;8.56;68.02;101246.75;6215899;23;20366;-83
2022/05/31 03:13:41;;;;;;;2.45;2.25;;;;;;;8.57;68.09;101241.59;6216395;23;20005;-83
2022/05/31 03:16:07;;;;;;;2.00;1.90;;;;;;;8.58;68.02;101243.34;6217190;23;20008;-83
2022/05/31 03:18:39;;;;;;;2.30;2.10;;;;;;;8.60;68.14;101243.31;6216304;23;20000;-83
2022/05/31 03:21:16;;;;;;;2.30;2.10;;;;;;;8.61;68.14;101240.72;6216856;23;20001;-83
2022/05/31 03:23:44;;;;;;;;;;;;;;;8.62;68.12;101234.69;6216939;23;20365;-83
2022/05/31 03:26:14;;;;;;;2.38;2.17;;;;;;;8.63;68.29;101232.97;6215606;23;19986;-83
2022/05/31 03:28:39;;;;;;;2.60;2.30;;;;;;;8.63;68.11;101233.84;6216219;23;20028;-83
2022/05/31 03:31:06;;;;;;;3.17;2.33;;;;;;;8.64;69.66;101240.72;6215539;23;20066;-83
2022/05/31 03:33:32;;;;;;;2.22;2.03;;;;;;;8.62;68.43;101233.84;6216091;23;20058;-83
2022/05/31 03:35:58;;;;;;;2.30;1.90;;;;;;;8.63;68.44;101231.25;6217152;23;20005;-83
2022/05/31 03:38:26;;;;;;;2.30;2.10;;;;;;;8.67;68.38;101229.50;6216112;23;20750;-83
2022/05/31 03:40:57;;;;;;;2.28;2.08;;;;;;;8.69;68.46;101232.13;6215633;23;20067;-83
2022/05/31 03:43:24;;;;;;;2.45;2.20;;;;;;;8.71;68.41;101232.97;6216291;23;20008;-83
2022/05/31 03:45:49;;;;;;;1.88;1.77;;;;;;;8.75;68.51;101232.97;6215249;23;20013;-84
2022/05/31 03:48:15;;;;;;;1.90;1.80;;;;;;;8.77;68.54;101231.25;6215889;23;20004;-83
2022/05/31 03:50:41;;;;;;;2.10;1.90;;;;;;;8.77;68.50;101231.25;6216024;23;20008;-83
2022/05/31 03:53:08;;;;;;;2.55;2.25;;;;;;;8.79;68.62;101234.66;6215821;23;20040;-83
2022/05/31 03:55:37;;;;;;;;;;;;;;;8.81;69.73;101235.53;6216379;23;20009;-84
2022/05/31 03:58:03;;;;;;;3.95;2.63;;;;;;;8.78;69.34;101235.53;6216314;23;19979;-83
2022/05/31 04:00:28;;;;;;;2.40;2.00;;;;;;;8.78;68.81;101237.28;6214911;23;20043;-83
2022/05/31 04:02:55;;;;;;;2.30;2.10;;;;;;;8.81;68.93;101238.13;6216043;23;20035;-83
2022/05/31 04:05:20;;;;;;;2.30;2.10;;;;;;;8.84;68.71;101233.81;6218271;23;20021;-83
2022/05/31 04:07:45;;;;;;;2.10;1.90;;;;;;;8.87;68.59;101232.06;6217372;23;20410;-83
2022/05/31 04:10:11;;;;;;;2.73;2.10;;;;;;;8.89;68.52;101229.50;6217090;23;20032;-83
2022/05/31 04:12:38;;;;;;;2.20;2.00;;;;;;;8.93;68.72;101236.38;6216192;23;20011;-83
2022/05/31 04:15:04;;;;;;;2.17;1.95;;;;;;;8.93;68.73;101232.06;6215300;23;20008;-83
2022/05/31 04:17:29;;;;;;;2.63;2.03;;;;;;;8.93;69.23;101231.19;6215701;23;20031;-83
2022/05/31 04:19:55;;;;;;;2.40;2.20;;;;;;;8.95;68.78;101226.88;6215370;23;20001;-83
2022/05/31 04:22:20;;;;;;;6.00;3.80;;;;;;;8.92;72.25;101235.53;6215082;23;20083;-84
2022/05/31 04:24:45;;;;;;;5.50;3.50;;;;;;;8.91;69.75;101228.63;6215208;23;20043;-84
2022/05/31 04:27:15;;;;;;;3.13;2.80;;;;;;;8.94;69.47;101230.34;6216009;23;19997;-84
2022/05/31 04:29:41;;;;;;;3.55;2.70;;;;;;;8.98;69.16;101229.47;6215103;23;20079;-84
2022/05/31 04:32:06;;;;;;;3.10;2.50;;;;;;;8.99;70.52;101233.78;6215946;23;20426;-83
2022/05/31 04:34:32;;;;;;;3.05;2.45;;;;;;;9.01;69.14;101232.03;6215094;23;20009;-83
2022/05/31 04:36:57;;;;;;;2.57;2.37;;;;;;;9.06;69.42;101232.06;6215365;23;20030;-84
2022/05/31 04:39:22;;;;;;;2.40;2.20;;;;;;;9.07;70.79;101238.91;6215984;23;19997;-84
2022/05/31 04:41:47;;;;;;;3.60;2.50;;;;;;;9.08;69.44;101238.94;6214307;23;20095;-83
2022/05/31 04:44:15;;;;;;;2.20;2.00;;;;;;;9.09;69.46;101240.66;6216175;23;20027;-84
2022/05/31 04:46:42;;;;;;;3.58;2.60;;;;;;;9.11;70.28;101233.75;6215286;23;20008;-84
2022/05/31 04:49:07;;;;;;;3.28;2.72;;;;;;;9.13;70.56;101228.56;6214715;23;20311;-84
2022/05/31 04:51:34;;;;;;;6.53;3.80;;;;;;;9.07;72.69;101225.97;6215490;23;20003;-83
2022/05/31 04:53:59;;;;;;;5.72;3.53;;;;;;;9.09;69.96;101227.72;6215335;23;20009;-84
2022/05/31 04:56:25;;;;;;;7.75;3.80;;;;;;;9.12;72.06;101224.25;6214372;23;20011;-84
2022/05/31 04:58:52;;;;;;;5.20;3.63;;;;;;;9.13;71.61;101223.38;6215822;23;20067;-84
2022/05/31 05:01:18;;;;;;;4.57;3.65;;;;;;;9.14;70.78;101222.53;6215659;23;20084;-83
2022/05/31 05:03:44;;;;;;;10.50;5.70;;;;;;;9.12;71.89;101227.69;6214198;23;20005;-83
2022/05/31 05:06:11;;;;;;;6.93;4.40;;;;;;;9.16;70.45;101220.78;6215771;23;20003;-83
2022/05/31 05:08:37;;;;;;;5.00;3.83;;;;;;;9.21;70.64;101221.63;6215791;23;20387;-83
2022/05/31 05:11:05;;;;;;;6.43;3.80;;;;;;;9.26;70.97;101219.00;6214867;23;20005;-83
2022/05/31 05:13:31;;;;;;;7.72;4.63;;;;;;;9.29;71.04;101215.56;6215387;23;20015;-86
2022/05/31 05:15:57;;;;;;;5.57;3.90;;;;;;;9.33;70.89;101222.44;6215393;23;20016;-85
2022/05/31 05:18:23;;;;;;;6.13;3.88;;;;;;;9.37;71.70;101219.84;6214572;23;20247;-86
2022/05/31 05:20:49;;;;;;;4.90;3.78;;;;;;;9.40;72.43;101219.81;6213961;23;20009;-84
2022/05/31 05:23:14;;;;;;;5.90;4.13;;;;;;;9.43;72.17;101222.41;6214549;23;20040;-84
2022/05/31 05:25:40;;;;;;;7.50;4.57;;;;;;;9.47;71.93;101212.00;6214214;23;20005;-84
2022/05/31 05:30:51;;;;;;;8.32;4.20;;;;;;;9.55;71.53;101218.03;6213920;23;20333;-84
2022/05/31 05:33:16;;;;;;;4.60;3.60;;;;;;;9.60;70.83;101218.88;6215055;23;20020;-84
2022/05/31 05:35:41;;;;;;;5.03;3.20;;;;;;;9.67;70.40;101219.69;6215316;23;20240;-84
2022/05/31 05:38:07;;;;;;;4.37;2.83;;;;;;;9.75;70.36;101225.69;6215320;23;20479;-83
2022/05/31 05:40:34;;;;;;;4.20;2.80;;;;;;;9.81;70.02;101222.19;6215172;23;20016;-83
2022/05/31 05:42:59;;;;;;;2.80;2.42;;;;;;;9.90;71.01;101227.34;6215594;23;20024;-83
2022/05/31 05:45:24;;;;;;;2.60;2.40;;;;;;;9.96;70.29;101226.44;6214765;23;20075;-83
2022/05/31 05:47:49;;;;;;;5.40;3.50;;;;;;;10.01;71.91;101216.91;6215407;23;20012;-82
2022/05/31 05:50:15;;;;;;;11.77;5.87;;;;;;;9.96;72.35;101216.09;6216558;23;20476;-83
2022/05/31 05:52:40;;;;;;;8.80;5.73;;;;;;;9.91;72.40;101221.28;6214088;23;20472;-82
2022/05/31 05:55:06;;;;;;;9.53;5.60;;;;;;;9.92;72.43;101215.22;6215733;23;20001;-83
2022/05/31 05:57:32;;;;;;;10.00;5.80;;;;;;;9.96;72.09;101221.28;6215563;23;20275;-83
2022/05/31 05:59:58;;;;;;;8.90;5.40;;;;;;;10.00;72.08;101220.34;6214031;23;20012;-83
2022/05/31 06:02:31;;;;;;;9.77;5.70;;;;;;;10.01;71.20;101220.38;6215069;23;20007;-83
2022/05/31 06:05:12;;;;;;;6.40;4.43;;;;;;;10.09;71.31;101222.03;6214875;23;20015;-83
2022/05/31 06:07:55;;;;;;;7.25;4.28;;;;;;;10.16;71.36;101218.50;6214248;23;20079;-83
2022/05/31 06:10:26;;;;;;;6.38;4.25;;;;;;;10.22;72.30;101223.66;6215280;23;20005;-83
2022/05/31 06:12:59;;;;;;;7.55;4.90;;;;;;;10.26;71.70;101224.50;6212483;23;20072;-82
2022/05/31 06:15:35;;;;;;;11.85;5.90;;;;;;;10.27;71.04;101218.44;6214189;23;20008;-82
2022/05/31 06:18:07;;;;;;;9.35;5.25;;;;;;;10.33;71.93;101214.06;6212591;23;20009;-83
2022/05/31 06:20:33;;;;;;;8.93;4.97;;;;;;;10.42;71.54;101218.31;6214282;23;20008;-83
2022/05/31 06:23:00;;;;;;;12.47;6.23;;;;;;;10.54;71.26;101214.78;6212688;23;20004;-81
2022/05/31 06:25:25;;;;;;;12.23;6.43;;;;;;;10.72;71.70;101213.75;6214365;23;20243;-81
2022/05/31 06:27:51;;;;;;;11.73;6.40;;;;;;;10.91;71.17;101216.13;6212250;23;20004;-82
2022/05/31 06:30:16;;;;;;;14.10;7.17;;;;;;;11.05;71.02;101215.97;6215588;23;20005;-81
2022/05/31 06:32:41;;;;;;;15.63;8.13;;;;;;;11.22;70.53;101213.19;6214410;23;20430;-81
2022/05/31 06:35:07;;;;;;;12.50;7.23;;;;;;;11.81;68.66;101215.91;6214819;23;20047;-82
2022/05/31 06:37:33;;;;;;;14.70;8.27;;;;;;;12.04;69.16;101215.56;6215410;23;20043;-82
2022/05/31 06:39:58;;;;;;;12.17;6.97;;;;;;;12.41;68.20;101215.88;6215479;23;20001;-82
2022/05/31 06:42:24;;;;;;;9.63;5.80;;;;;;;12.58;66.66;101213.81;6213666;23;20016;-81
2022/05/31 06:44:52;;;;;;;9.93;6.20;;;;;;;12.71;66.33;101217.06;6215043;23;20031;-82
2022/05/31 06:47:18;;;;;;;9.68;6.10;;;;;;;12.88;66.04;101227.19;6214927;23;20448;-82
2022/05/31 06:49:43;;;;;;;10.23;6.67;;;;;;;12.87;65.94;101216.78;6207828;23;20009;-81
2022/05/31 06:57:42;;;;;;;10.57;6.20;;;;;;;12.83;65.67;101222.03;6214570;23;20068;-82
2022/05/31 07:00:10;;;;;;;9.55;5.45;;;;;;;12.83;66.09;101221.19;6215060;23;20009;-81
2022/05/31 07:02:36;;;;;;;8.52;4.60;;;;;;;12.86;65.96;101220.25;6213727;23;20040;-82
2022/05/31 07:05:02;;;;;;;6.57;4.67;;;;;;;12.95;65.05;101220.09;6214916;23;20055;-82
2022/05/31 07:07:28;;;;;;;12.73;6.30;;;;;;;13.05;65.58;101218.16;6215039;23;20028;-82
2022/05/31 07:09:53;;;;;;;9.03;5.60;;;;;;;13.18;65.74;101221.38;6213025;23;20011;-82
2022/05/31 07:12:20;;;;;;;7.80;5.07;;;;;;;13.44;64.95;101220.91;6215965;23;20000;-83
2022/05/31 07:14:45;;;;;;;9.07;4.93;;;;;;;13.73;64.55;101222.88;6216054;23;20476;-82
2022/05/31 07:17:10;;;;;;;8.43;5.20;;;;;;;14.04;62.86;101214.34;6215957;23;20076;-82
2022/05/31 07:19:37;;;;;;;10.60;5.57;;;;;;;14.31;60.91;101216.31;6216465;23;20418;-82
2022/05/31 07:22:03;;;;;;;9.05;5.40;;;;;;;14.46;62.21;101218.53;6216130;23;20016;-83
2022/05/31 07:24:30;;;;;;;7.43;4.60;;;;;;;14.70;61.39;101208.34;6213985;23;20013;-83
2022/05/31 07:26:55;;;;;;;8.32;4.82;;;;;;;14.97;60.56;101211.97;6216079;23;20063;-83
2022/05/31 07:29:21;;;;;;;7.43;4.20;;;;;;;15.20;59.87;101213.06;6215931;23;20000;-83
2022/05/31 07:31:47;;;;;;;6.33;4.50;;;;;;;15.30;59.07;101208.44;6214819;23;20244;-83
2022/05/31 07:34:14;;;;;;;7.53;4.30;;;;;;;15.33;58.98;101213.59;6216521;23;20240;-83
2022/05/31 07:36:39;;;;;;;6.28;4.28;;;;;;;15.34;56.95;101212.69;6215394;23;20035;-83
2022/05/31 07:39:08;;;;;;;4.70;3.53;;;;;;;15.42;59.63;101210.69;6215384;23;20000;-83
2022/05/31 07:41:34;;;;;;;6.00;4.28;;;;;;;15.54;58.03;101206.00;6215827;23;20052;-84
2022/05/31 07:44:00;;;;;;;6.95;3.83;;;;;;;15.60;58.12;101214.53;6216093;23;20016;-83
2022/05/31 07:46:25;;;;;;;6.72;4.13;;;;;;;15.65;57.79;101213.53;6215341;23;20005;-83
2022/05/31 07:48:50;;;;;;;5.00;3.60;;;;;;;15.68;58.49;101209.06;6216138;23;20027;-83
2022/05/31 07:51:16;;;;;;;5.27;3.40;;;;;;;15.86;58.47;101209.41;6215525;23;20004;-83
2022/05/31 07:53:41;;;;;;;3.90;3.20;;;;;;;16.06;57.23;101209.63;6215641;23;20330;-83
2022/05/31 07:56:07;;;;;;;7.07;4.30;;;;;;;16.11;54.63;101206.84;6216486;23;20096;-83
2022/05/31 07:58:34;;;;;;;5.57;3.60;;;;;;;16.14;56.00;101200.69;6215691;23;20022;-82
2022/05/31 08:01:01;;;;;;;5.68;3.53;;;;;;;16.16;53.20;101198.84;6216141;23;20005;-83
2022/05/31 08:03:27;;;;;;;4.43;3.17;;;;;;;16.17;56.18;101200.56;6216171;23;20360;-83
2022/05/31 08:05:53;;;;;;;5.33;3.00;;;;;;;16.26;54.79;101200.28;6212980;23;20008;-83
2022/05/31 08:08:19;;;;;;;;;;;;;;;16.10;53.04;101199.06;6216475;23;20004;-83
2022/05/31 08:10:44;;;;;;;10.00;4.83;;;;;;;15.95;52.44;101200.41;6215842;23;19908;-82
2022/05/31 08:13:09;;;;;;;6.80;3.80;;;;;;;16.00;54.73;101188.88;6214979;23;20015;-83
2022/05/31 08:15:35;;;;;;;6.13;3.90;;;;;;;16.12;53.75;101192.84;6215409;23;20001;-86
2022/05/31 08:18:01;;;;;;;4.38;3.30;;;;;;;16.27;54.56;101183.63;6213783;23;20001;-85
2022/05/31 08:20:26;;;;;;;5.40;3.10;;;;;;;16.51;54.72;101189.81;6215112;23;20057;-84
2022/05/31 08:22:51;;;;;;;6.77;3.60;;;;;;;16.76;53.18;101190.69;6214868;23;20005;-82
2022/05/31 08:25:17;;;;;;;4.97;3.40;;;;;;;16.98;53.34;101177.72;6216170;23;20001;-82
2022/05/31 08:27:42;;;;;;;5.67;3.70;;;;;;;17.09;53.31;101174.69;6214847;23;20008;-82
2022/05/31 08:30:08;;;;;;;6.67;3.60;;;;;;;17.22;53.36;101177.72;6215894;23;20012;-83
2022/05/31 08:32:35;;;;;;;7.25;4.22;;;;;;;17.26;51.96;101177.53;6214818;23;20004;-82
2022/05/31 08:35:00;;;;;;;6.30;4.00;;;;;;;17.29;52.51;101168.69;6214786;23;20005;-81
2022/05/31 08:37:26;;;;;;;5.87;3.57;;;;;;;17.40;51.67;101171.75;6215660;23;20032;-81
2022/05/31 08:39:51;;;;;;;6.33;3.60;;;;;;;17.51;51.75;101175.72;6214801;23;20759;-82
2022/05/31 08:42:27;;;;;;;5.40;3.70;;;;;;;17.58;50.47;101179.81;6214607;23;20044;-81
2022/05/31 08:45:44;;;;;;;6.35;4.00;;;;;;;17.48;46.40;101167.97;6215262;23;20366;-80
2022/05/31 08:48:19;;;;;;;5.22;3.67;;;;;;;17.37;50.38;101171.03;6163540;23;20005;-82
2022/05/31 08:56:56;;;;;;;6.80;4.18;;;;;;;17.51;50.26;101178.34;6215192;23;20472;-81
2022/05/31 08:56:58;;;;;;;5.65;3.65;;;;;;;17.44;50.74;101177.72;6213761;23;20039;-81
2022/05/31 08:59:33;;;;;;;4.28;3.20;;;;;;;17.35;51.22;101188.59;6215823;23;20009;-83
2022/05/31 09:02:05;;;;;;;5.50;3.20;;;;;;;17.45;48.71;101182.91;6214565;23;20008;-82
2022/05/31 09:04:38;;;;;;;6.30;3.70;;;;;;;17.59;51.17;101189.41;6215766;23;20047;-81
2022/05/31 09:07:18;;;;;;;4.35;3.08;;;;;;;17.79;50.16;101177.28;6215125;23;20008;-82
2022/05/31 09:09:54;;;;;;;5.45;3.08;;;;;;;17.89;50.77;101168.09;6214514;23;20012;-82
2022/05/31 09:12:38;;;;;;;;;;;;;;;18.03;50.19;101173.66;6215785;23;20015;-82
2022/05/31 09:15:17;;;;;;;5.72;3.30;;;;;;;18.19;48.77;101170.41;6215645;23;19908;-82
2022/05/31 09:18:04;;;;;;;3.03;2.60;;;;;;;18.33;49.38;101175.94;6214341;23;20004;-82
2022/05/31 09:20:29;;;;;;;3.97;2.80;;;;;;;18.46;49.09;101171.00;6215043;23;20012;-82
2022/05/31 09:22:55;;;;;;;3.23;2.63;;;;;;;18.54;49.65;101175.91;6214210;23;20004;-82
2022/05/31 09:25:20;;;;;;;2.90;2.60;;;;;;;18.74;49.28;101176.81;6215129;23;20426;-81
2022/05/31 09:27:48;;;;;;;3.30;2.50;;;;;;;18.90;48.81;101180.47;6215116;23;20114;-82
2022/05/31 09:30:45;;;;;;;4.90;3.17;;;;;;;18.96;47.91;101177.59;6214692;23;20001;-83
2022/05/31 09:33:38;;;;;;;3.53;2.58;;;;;;;19.09;48.33;101171.75;6195299;23;20004;-82
2022/05/31 09:36:24;;;;;;;4.65;3.10;;;;;;;19.14;47.08;101181.16;6215005;23;20011;-82
2022/05/31 09:38:55;;;;;;;3.78;3.03;;;;;;;19.21;48.40;101171.19;6214390;23;20004;-82
2022/05/31 09:42:12;;;;;;;6.15;3.95;;;;;;;18.55;43.08;101177.63;6214289;23;20020;-83
2022/05/31 09:44:43;;;;;;;7.88;3.85;;;;;;;18.63;45.37;101172.88;6163914;23;20009;-82
2022/05/31 09:47:16;;;;;;;4.15;3.08;;;;;;;18.76;45.97;101181.06;6215436;23;20015;-82
2022/05/31 09:49:45;;;;;;;4.63;3.25;;;;;;;18.98;44.12;101177.50;6213895;23;20000;-81
2022/05/31 09:52:20;;;;;;;3.70;2.80;;;;;;;19.08;46.07;101175.31;6213760;23;20009;-82
2022/05/31 09:58:27;;;;;;;3.10;2.30;;;;;;;19.43;46.63;101168.41;6213871;23;20022;-82
2022/05/31 10:01:12;;;;;;;2.30;2.10;;;;;;;19.64;46.45;101170.09;6202393;23;20009;-82
2022/05/31 10:03:44;;;;;;;5.30;3.03;;;;;;;19.76;45.57;101166.84;6214741;23;20007;-82
2022/05/31 10:06:19;;;;;;;4.05;2.83;;;;;;;19.82;45.88;101158.63;6214432;23;20004;-82
2022/05/31 10:08:54;;;;;;;4.13;3.20;;;;;;;19.92;44.56;101164.34;6215047;23;20071;-82
2022/05/31 10:11:34;;;;;;;6.32;3.55;;;;;;;19.96;43.91;101160.66;6214905;23;20005;-82
2022/05/31 10:14:06;;;;;;;5.88;4.07;;;;;;;19.82;43.27;101163.91;6213626;23;20004;-82
2022/05/31 10:16:34;;;;;;;5.00;3.40;;;;;;;19.87;43.90;101163.75;6215839;23;20011;-82
2022/05/31 10:19:08;;;;;;;9.63;4.80;;;;;;;19.70;42.22;101162.75;6213259;23;20036;-81
2022/05/31 10:21:43;;;;;;;8.30;4.65;;;;;;;19.44;42.34;101158.75;6214834;23;20425;-81
2022/05/31 10:24:08;;;;;;;7.03;4.00;;;;;;;19.36;43.66;101160.88;6214543;23;20422;-82
2022/05/31 10:26:38;;;;;;;5.50;3.80;;;;;;;19.35;44.33;101151.28;6214339;23;20015;-81
2022/05/31 10:29:26;;;;;;;8.02;4.35;;;;;;;19.01;43.50;101155.50;6214764;23;20426;-81
2022/05/31 10:31:53;;;;;;;4.78;3.10;;;;;;;18.98;44.87;101151.19;6214625;23;20008;-81
2022/05/31 10:34:36;;;;;;;4.80;3.08;;;;;;;19.07;44.76;101157.81;6214173;23;20010;-81
2022/05/31 10:37:05;;;;;;;3.97;2.90;;;;;;;19.01;45.70;101158.13;6214612;23;20007;-81
2022/05/31 10:39:37;;;;;;;4.50;2.90;;;;;;;19.00;43.72;101159.03;6214943;23;20009;-81
2022/05/31 10:42:08;;;;;;;5.40;3.80;;;;;;;18.68;45.41;101164.78;6213718;23;20039;-81
2022/05/31 10:44:44;;;;;;;4.85;2.90;;;;;;;18.71;46.19;101156.78;6215168;23;20067;-81
2022/05/31 10:47:13;;;;;;;;;;;;;;;19.10;46.50;101150.63;6215094;23;20036;-81
2022/05/31 10:49:41;;;;;;;3.72;2.67;;;;;;;19.27;46.45;101143.75;6216428;23;19955;-81
2022/05/31 10:52:15;;;;;;;3.30;2.70;;;;;;;19.46;45.58;101151.63;6216304;23;20414;-81
2022/05/31 10:55:02;;;;;;;4.80;3.00;;;;;;;19.60;45.38;101145.69;6215812;23;20047;-81
2022/05/31 10:57:44;;;;;;;3.55;2.70;;;;;;;19.62;45.62;101141.22;6216917;23;20014;-81
2022/05/31 11:00:32;;;;;;;3.17;2.70;;;;;;;19.59;45.16;101142.19;6216903;23;20035;-81
2022/05/31 11:03:16;;;;;;;3.92;2.70;;;;;;;19.46;44.64;101146.38;6215632;23;20016;-81
2022/05/31 11:05:52;;;;;;;3.88;2.80;;;;;;;19.36;44.53;101151.19;6216238;23;20000;-81
2022/05/31 11:12:08;;;;;;;3.83;2.78;;;;;;;19.09;45.19;101154.19;6216592;23;20071;-81
2022/05/31 11:14:53;;;;;;;4.68;2.75;;;;;;;18.95;46.03;101162.72;6216327;23;20000;-81
2022/05/31 11:17:40;;;;;;;3.85;2.90;;;;;;;18.91;45.61;101171.66;6215825;23;20005;-84
2022/05/31 11:20:10;;;;;;;3.00;2.42;;;;;;;18.75;45.88;101158.31;6216746;23;20055;-84
2022/05/31 11:22:46;;;;;;;5.10;3.40;;;;;;;18.44;45.87;101161.47;6215785;23;20169;-84
2022/05/31 11:25:37;;;;;;;5.75;3.45;;;;;;;18.21;45.77;101155.44;6216330;23;20007;-84
2022/05/31 11:28:15;;;;;;;3.05;2.70;;;;;;;18.09;46.64;101161.19;6216096;23;20000;-85
2022/05/31 11:31:04;;;;;;;4.05;2.80;;;;;;;18.00;46.77;101157.16;6215726;23;20024;-84
2022/05/31 11:33:39;;;;;;;3.35;2.67;;;;;;;18.02;47.29;101166.69;6215456;23;20012;-83
2022/05/31 11:36:27;;;;;;;2.47;2.28;;;;;;;18.03;47.28;101163.16;6215219;23;20008;-85
2022/05/31 11:39:21;;;;;;;3.58;2.50;;;;;;;18.10;47.52;101162.91;6216265;23;20333;-84
2022/05/31 11:42:22;;;;;;;4.10;2.95;;;;;;;18.16;49.01;101162.63;6216000;23;20013;-83
2022/05/31 11:45:03;;;;;;;3.92;2.58;;;;;;;18.13;48.13;101170.63;6133907;23;20014;-84
2022/05/31 11:47:37;;;;;;;4.72;3.00;;;;;;;18.13;46.92;101174.13;6216652;23;20017;-85
2022/05/31 11:50:22;;;;;;;3.78;2.80;;;;;;;17.97;47.17;101168.66;6216520;23;20005;-84
2022/05/31 11:53:13;;;;;;;3.92;2.63;;;;;;;17.83;43.24;101169.19;6215681;23;20012;-84
2022/05/31 11:56:02;;;;;;;3.53;2.63;;;;;;;17.73;45.90;101163.47;6215701;23;20433;-83
2022/05/31 11:58:39;;;;;;;3.20;2.47;;;;;;;17.79;46.04;101164.97;6214644;23;20001;-83
2022/05/31 12:01:19;;;;;;;2.33;2.13;;;;;;;18.00;46.38;101162.44;6215905;23;20000;-83
2022/05/31 12:17:01;;;;;;;2.38;2.00;;;;;;;19.11;43.12;101159.41;6036942;23;20042;-83